KPUB/PUB METAR and TAF weather

Enter ICAO airport designator
Station Type Date Time Source
KPUB METAR 2019/12/08 03:53 UTC NOAA

KPUB 080353Z 00000KT 10SM CLR 08/M04 A2993 RMK AO2 SLP139 T00781044


Station Type Date Time Source
KPUB Decoded METAR 2019/12/08 03:53 UTC NOAA

PUEBLO MEMORIAL AIRPORT, CO, United States (KPUB) 38-17N 104-30W 1420M
Dec 07, 2019 - 10:53 PM EST / 2019.12.08 0353 UTC
Wind: Calm:0
Visibility: 10 mile(s):0
Sky conditions: clear
Temperature: 46.0 F (7.8 C)
Dew Point: 24.1 F (-4.4 C)
Relative Humidity: 41%
Pressure (altimeter): 29.93 in. Hg (1013 hPa)
ob: KPUB 080353Z 00000KT 10SM CLR 08/M04 A2993 RMK AO2 SLP139 T00781044
cycle: 4

Station Type Date Time Source
KPUB TAF 2019/12/07 21:42 UTC NOAA

TAF
AMD KPUB 072041Z 0721/0818 28022G32KT P6SM SCT200
FM080000 28015KT P6SM SCT200
FM080300 29012KT P6SM BKN250
FM081200 30008KT P6SM SCT150 BKN200

Example: see airport list